Time;durP1;ratioP1;P1;durP2;ratioP2;P2;SDS_P1;SDS_P2;PMS_P1;PMS_P2;Temp;Humidity;BMP_temperature;BMP_pressure;BME280_temperature;BME280_humidity;BME280_pressure;Samples;Min_cycle;Max_cycle;Signal;HPM_P1;HPM_P2
2021/09/22 00:00:58;;;;;;;4.20;3.87;;;13.20;99.90;;;;;;5012618;28;20176;-70
2021/09/22 00:03:23;;;;;;;3.90;3.50;;;13.20;99.90;;;;;;5012232;28;20176;-70
2021/09/22 00:05:50;;;;;;;4.77;3.27;;;13.20;99.90;;;;;;5011566;28;20615;-70
2021/09/22 00:08:15;;;;;;;4.00;3.40;;;13.20;99.90;;;;;;5012513;28;20177;-70
2021/09/22 00:10:41;;;;;;;4.07;3.60;;;13.20;99.90;;;;;;5012492;28;20473;-70
2021/09/22 00:13:06;;;;;;;4.47;2.80;;;13.20;99.90;;;;;;5012676;28;20183;-70
2021/09/22 00:15:32;;;;;;;4.73;3.47;;;13.20;99.90;;;;;;5012271;28;20741;-70
2021/09/22 00:17:58;;;;;;;5.43;3.73;;;13.20;99.90;;;;;;5011983;28;20229;-71
2021/09/22 00:20:24;;;;;;;4.10;3.20;;;13.20;99.90;;;;;;5012411;28;20167;-71
2021/09/22 00:22:55;;;;;;;4.50;2.87;;;13.20;99.90;;;;;;5012393;28;20184;-70
2021/09/22 00:25:22;;;;;;;3.33;2.97;;;13.20;99.90;;;;;;5012327;28;20415;-70
2021/09/22 00:27:48;;;;;;;5.50;3.80;;;13.20;99.90;;;;;;5012119;28;20765;-71
2021/09/22 00:30:13;;;;;;;3.77;3.37;;;13.10;99.90;;;;;;5012014;28;20416;-71
2021/09/22 00:32:40;;;;;;;3.53;2.50;;;13.10;99.90;;;;;;5011814;28;20453;-70
2021/09/22 00:35:07;;;;;;;4.87;3.10;;;13.00;99.90;;;;;;4994172;28;20192;-71
2021/09/22 00:37:33;;;;;;;4.60;2.93;;;13.00;99.90;;;;;;5011751;28;20484;-71
2021/09/22 00:39:58;;;;;;;3.97;2.70;;;12.90;99.90;;;;;;5011814;28;20403;-70
2021/09/22 00:42:24;;;;;;;6.60;4.53;;;12.90;99.90;;;;;;5011692;28;20403;-70
2021/09/22 00:44:56;;;;;;;3.90;2.93;;;12.90;99.90;;;;;;5011470;28;20641;-71
2021/09/22 00:47:23;;;;;;;4.53;2.83;;;12.90;99.90;;;;;;5011860;28;20176;-71
2021/09/22 00:49:49;;;;;;;5.53;3.10;;;12.90;99.90;;;;;;5011722;28;20407;-71
2021/09/22 00:52:16;;;;;;;4.30;3.37;;;12.90;99.90;;;;;;5011597;28;20433;-71
2021/09/22 00:54:42;;;;;;;5.70;3.43;;;12.80;99.90;;;;;;5011443;28;20441;-71
2021/09/22 00:57:10;;;;;;;3.70;3.40;;;12.80;99.90;;;;;;5011463;28;20443;-71
2021/09/22 00:59:35;;;;;;;5.17;3.10;;;12.80;99.90;;;;;;5011314;28;20408;-71
2021/09/22 01:02:02;;;;;;;3.20;2.90;;;12.70;99.90;;;;;;4993936;28;20826;-71
2021/09/22 01:04:28;;;;;;;2.83;2.57;;;12.80;99.90;;;;;;5011266;28;20184;-70
2021/09/22 01:06:53;;;;;;;3.47;2.80;;;12.80;99.90;;;;;;5011536;28;20777;-71
2021/09/22 01:09:20;;;;;;;3.63;2.20;;;12.80;99.90;;;;;;5011368;28;20411;-70
2021/09/22 01:11:46;;;;;;;3.00;2.67;;;12.90;99.90;;;;;;5011366;28;20217;-70
2021/09/22 01:14:12;;;;;;;5.30;2.33;;;12.90;99.90;;;;;;5011074;28;20411;-71
2021/09/22 01:16:42;;;;;;;3.63;2.27;;;12.80;99.90;;;;;;5010976;28;20454;-71
2021/09/22 01:19:08;;;;;;;5.40;3.83;;;12.90;99.90;;;;;;5011135;28;20192;-71
2021/09/22 01:21:33;;;;;;;5.40;2.67;;;12.90;99.90;;;;;;5011219;28;20498;-70
2021/09/22 01:23:59;;;;;;;12.07;3.00;;;12.80;99.90;;;;;;5011270;28;20176;-71
2021/09/22 01:26:24;;;;;;;5.60;3.30;;;12.80;99.90;;;;;;5011252;28;20184;-71
2021/09/22 01:28:50;;;;;;;3.77;2.83;;;12.80;99.90;;;;;;5011164;28;20176;-70
2021/09/22 01:31:15;;;;;;;3.50;3.20;;;12.90;99.90;;;;;;5011200;28;20624;-70
2021/09/22 01:33:43;;;;;;;4.80;4.20;;;12.80;99.90;;;;;;5011335;28;20187;-70
2021/09/22 01:36:12;;;;;;;4.13;3.53;;;12.80;99.90;;;;;;5011184;28;20201;-71
2021/09/22 01:38:37;;;;;;;4.93;2.67;;;12.90;99.90;;;;;;5011228;28;20918;-71
2021/09/22 01:41:06;;;;;;;7.03;2.73;;;12.90;99.90;;;;;;5011019;28;20466;-71
2021/09/22 01:43:34;;;;;;;7.10;4.20;;;12.90;99.90;;;;;;5009971;28;20639;-70
2021/09/22 01:46:01;;;;;;;3.93;2.77;;;12.90;99.90;;;;;;5011020;28;20522;-71
2021/09/22 01:48:27;;;;;;;3.50;2.97;;;12.90;99.90;;;;;;5011286;28;20469;-71
2021/09/22 01:50:55;;;;;;;5.50;3.17;;;12.90;99.90;;;;;;5010924;28;20418;-70
2021/09/22 01:53:21;;;;;;;4.53;3.37;;;12.90;99.90;;;;;;5011028;28;20443;-70
2021/09/22 01:55:46;;;;;;;9.00;3.23;;;12.90;99.90;;;;;;5011119;28;21205;-70
2021/09/22 01:58:13;;;;;;;4.30;2.20;;;12.90;99.90;;;;;;5010955;28;20545;-70
2021/09/22 02:00:38;;;;;;;4.73;3.00;;;12.90;99.90;;;;;;5010958;28;20639;-70
2021/09/22 02:03:04;;;;;;;6.60;2.80;;;12.90;99.90;;;;;;5010970;28;20408;-70
2021/09/22 02:05:30;;;;;;;3.07;2.20;;;12.90;99.90;;;;;;5010739;28;20283;-70
2021/09/22 02:07:55;;;;;;;3.13;2.40;;;12.90;99.90;;;;;;5011026;28;20176;-70
2021/09/22 02:10:21;;;;;;;2.40;2.20;;;12.80;99.90;;;;;;5010829;28;20176;-70
2021/09/22 02:12:46;;;;;;;6.00;2.47;;;12.80;99.90;;;;;;5010925;28;20352;-70
2021/09/22 02:15:12;;;;;;;5.87;2.43;;;12.80;99.90;;;;;;5010766;28;20188;-70
2021/09/22 02:17:37;;;;;;;2.03;1.93;;;12.80;99.90;;;;;;5010707;28;20200;-70
2021/09/22 02:20:04;;;;;;;1.97;1.80;;;12.80;99.90;;;;;;5010799;28;20167;-71
2021/09/22 02:22:30;;;;;;;2.37;1.97;;;12.70;99.90;;;;;;5010883;28;20176;-70
2021/09/22 02:24:55;;;;;;;3.47;2.33;;;12.80;99.90;;;;;;5010763;28;20430;-70
2021/09/22 02:27:21;;;;;;;3.03;1.97;;;12.70;99.90;;;;;;5010824;28;20226;-70
2021/09/22 02:29:47;;;;;;;3.60;2.17;;;12.70;99.90;;;;;;5012515;28;20172;-70
2021/09/22 02:32:14;;;;;;;2.43;1.80;;;12.70;99.90;;;;;;5014148;28;20173;-70
2021/09/22 02:34:40;;;;;;;2.93;2.00;;;12.70;99.90;;;;;;5013994;28;20439;-70
2021/09/22 02:37:06;;;;;;;15.47;2.20;;;12.60;99.90;;;;;;5014113;28;20482;-70
2021/09/22 02:39:32;;;;;;;9.10;2.40;;;12.60;99.90;;;;;;5014311;28;20438;-70
2021/09/22 02:41:58;;;;;;;5.17;2.03;;;12.50;99.90;;;;;;5014219;28;20807;-70
2021/09/22 02:44:23;;;;;;;3.27;1.67;;;12.50;99.90;;;;;;5013948;28;20426;-70
2021/09/22 02:46:50;;;;;;;4.83;2.30;;;12.40;99.90;;;;;;5014253;28;20175;-70
2021/09/22 02:49:15;;;;;;;2.43;2.20;;;12.40;99.90;;;;;;5014052;28;20177;-70
2021/09/22 02:51:41;;;;;;;2.67;1.70;;;12.30;99.90;;;;;;5014041;28;20789;-70
2021/09/22 02:54:07;;;;;;;4.73;2.63;;;12.30;99.90;;;;;;5013837;28;20180;-70
2021/09/22 02:56:32;;;;;;;3.77;1.80;;;12.20;99.90;;;;;;5013698;28;20587;-69
2021/09/22 02:58:58;;;;;;;2.60;2.17;;;12.20;99.90;;;;;;5013797;28;20172;-70
2021/09/22 03:01:23;;;;;;;2.47;1.70;;;12.20;99.90;;;;;;5013558;28;20222;-69
2021/09/22 03:03:48;;;;;;;5.63;2.30;;;12.10;99.90;;;;;;5013412;28;20635;-70
2021/09/22 03:06:14;;;;;;;2.50;1.40;;;12.10;99.90;;;;;;5013548;28;20294;-69
2021/09/22 03:08:39;;;;;;;2.80;1.60;;;12.10;99.90;;;;;;5013587;28;20643;-69
2021/09/22 03:11:08;;;;;;;2.20;2.00;;;12.00;99.90;;;;;;5013604;28;20165;-69
2021/09/22 03:13:34;;;;;;;4.00;1.60;;;12.00;99.90;;;;;;5013460;28;20168;-69
2021/09/22 03:16:00;;;;;;;5.10;2.63;;;12.00;99.90;;;;;;4995711;28;20427;-70
2021/09/22 03:18:25;;;;;;;2.60;1.60;;;11.90;99.90;;;;;;5013116;28;20911;-70
2021/09/22 03:20:51;;;;;;;4.80;2.80;;;11.90;99.90;;;;;;5013353;28;20418;-70
2021/09/22 03:23:17;;;;;;;4.73;1.87;;;11.90;99.90;;;;;;5013236;28;20160;-70
2021/09/22 03:25:42;;;;;;;2.03;1.57;;;11.80;99.90;;;;;;5013226;28;20226;-70
2021/09/22 03:28:08;;;;;;;3.37;1.50;;;11.80;99.90;;;;;;5013358;28;20539;-70
2021/09/22 03:30:33;;;;;;;4.90;1.60;;;11.80;99.90;;;;;;5013203;28;20172;-70
2021/09/22 03:32:59;;;;;;;8.63;2.87;;;11.80;99.90;;;;;;5013057;28;20255;-70
2021/09/22 03:35:25;;;;;;;5.17;2.07;;;11.70;99.90;;;;;;5012922;28;20597;-70
2021/09/22 03:37:50;;;;;;;2.73;1.40;;;11.70;99.90;;;;;;5012965;28;20195;-70
2021/09/22 03:40:16;;;;;;;4.30;2.30;;;11.70;99.90;;;;;;5012932;28;20179;-70
2021/09/22 03:42:41;;;;;;;5.47;1.47;;;11.60;99.90;;;;;;5012932;28;20174;-69
2021/09/22 03:45:07;;;;;;;7.03;1.40;;;11.60;99.90;;;;;;5012658;28;20188;-69
2021/09/22 03:47:33;;;;;;;1.60;1.50;;;11.60;99.90;;;;;;5012768;28;20631;-68
2021/09/22 03:49:58;;;;;;;1.93;1.70;;;11.60;99.90;;;;;;5013089;28;20754;-69
2021/09/22 03:52:24;;;;;;;3.53;1.43;;;11.50;99.90;;;;;;5012639;28;20199;-68
2021/09/22 03:54:50;;;;;;;6.17;1.43;;;11.50;99.90;;;;;;5012675;28;20188;-69
2021/09/22 03:57:15;;;;;;;3.97;1.93;;;11.50;99.90;;;;;;5012620;28;21027;-69
2021/09/22 03:59:41;;;;;;;3.63;1.47;;;11.50;99.90;;;;;;5012807;28;20167;-69
2021/09/22 04:02:07;;;;;;;2.00;1.80;;;11.50;99.90;;;;;;5012458;28;20175;-69
2021/09/22 04:04:32;;;;;;;1.50;1.40;;;11.50;99.90;;;;;;5012456;28;20204;-69
2021/09/22 04:06:58;;;;;;;6.93;1.93;;;11.50;99.90;;;;;;5012534;28;20618;-68
2021/09/22 04:09:24;;;;;;;3.80;1.50;;;11.50;99.90;;;;;;5012494;28;20174;-69
2021/09/22 04:11:49;;;;;;;2.30;1.53;;;11.50;99.90;;;;;;5012612;28;20194;-68
2021/09/22 04:14:15;;;;;;;2.70;1.60;;;11.50;99.90;;;;;;5012241;28;20451;-70
2021/09/22 04:16:40;;;;;;;3.37;1.77;;;11.60;99.90;;;;;;5012202;28;20192;-70
2021/09/22 04:19:06;;;;;;;2.60;1.40;;;11.60;99.90;;;;;;5012318;28;20188;-68
2021/09/22 04:21:31;;;;;;;1.63;1.53;;;11.60;99.90;;;;;;5012310;28;20165;-69
2021/09/22 04:23:57;;;;;;;2.03;1.57;;;11.50;99.90;;;;;;5012399;28;20199;-69
2021/09/22 04:26:23;;;;;;;7.43;2.13;;;11.50;99.90;;;;;;5012192;28;20215;-69
2021/09/22 04:28:49;;;;;;;4.57;2.20;;;11.50;99.90;;;;;;5012290;28;20178;-69
2021/09/22 04:31:14;;;;;;;2.17;1.97;;;11.50;99.90;;;;;;5012027;28;20502;-68
2021/09/22 04:33:40;;;;;;;2.77;1.80;;;11.60;99.90;;;;;;5012096;28;20167;-68
2021/09/22 04:36:06;;;;;;;4.60;2.30;;;11.60;99.90;;;;;;5011990;28;20188;-69
2021/09/22 04:38:32;;;;;;;2.20;1.67;;;11.60;99.90;;;;;;5012397;28;20200;-68
2021/09/22 04:40:57;;;;;;;3.53;1.83;;;11.60;99.90;;;;;;5012078;28;20409;-68
2021/09/22 04:43:23;;;;;;;2.77;1.67;;;11.60;99.90;;;;;;5011849;28;20164;-69
2021/09/22 04:45:49;;;;;;;2.03;1.33;;;11.70;99.90;;;;;;5011732;28;20271;-69
2021/09/22 04:48:14;;;;;;;6.03;1.77;;;11.70;99.90;;;;;;5012050;28;20542;-69
2021/09/22 04:50:40;;;;;;;5.50;2.07;;;11.70;99.90;;;;;;5011982;28;20168;-68
2021/09/22 04:53:06;;;;;;;7.67;1.90;;;11.70;99.90;;;;;;5011176;28;20231;-69
2021/09/22 04:55:32;;;;;;;7.50;2.17;;;11.70;99.90;;;;;;5011610;28;20528;-69
2021/09/22 04:57:57;;;;;;;5.37;1.83;;;11.70;99.90;;;;;;5011601;28;20184;-69
2021/09/22 05:00:23;;;;;;;4.23;2.33;;;11.80;99.90;;;;;;4994028;28;20474;-69
2021/09/22 05:02:48;;;;;;;3.60;2.30;;;11.80;99.90;;;;;;5011520;28;20165;-69
2021/09/22 05:05:14;;;;;;;2.43;2.07;;;11.80;99.90;;;;;;5011452;28;20280;-70
2021/09/22 05:07:40;;;;;;;4.47;2.03;;;11.80;99.90;;;;;;5011593;28;20172;-68
2021/09/22 05:10:07;;;;;;;4.57;1.50;;;11.80;99.90;;;;;;5011526;28;20674;-68
2021/09/22 05:12:32;;;;;;;2.80;1.70;;;11.80;99.90;;;;;;5011377;28;20418;-69
2021/09/22 05:14:58;;;;;;;4.33;2.37;;;11.90;99.90;;;;;;5011244;28;20427;-69
2021/09/22 05:17:24;;;;;;;3.40;1.80;;;11.90;99.90;;;;;;5011259;28;20655;-69
2021/09/22 05:19:49;;;;;;;7.07;2.33;;;11.90;99.90;;;;;;5011606;28;20176;-70
2021/09/22 05:22:15;;;;;;;3.80;2.97;;;11.90;99.90;;;;;;5011517;28;20234;-70
2021/09/22 05:24:45;;;;;;;5.87;1.97;;;11.90;99.90;;;;;;5011227;28;20191;-69
2021/09/22 05:27:11;;;;;;;2.00;1.80;;;12.00;99.90;;;;;;5011423;28;20407;-71
2021/09/22 05:29:37;;;;;;;2.63;2.43;;;12.00;99.90;;;;;;5011392;28;20430;-70
2021/09/22 05:32:03;;;;;;;5.60;2.83;;;12.00;99.90;;;;;;5011443;28;20407;-71
2021/09/22 05:34:28;;;;;;;3.03;1.93;;;12.10;99.90;;;;;;5011268;28;20431;-67
2021/09/22 05:36:54;;;;;;;2.30;2.10;;;12.00;99.90;;;;;;5011333;28;20441;-68
2021/09/22 05:39:19;;;;;;;2.10;1.67;;;12.10;99.90;;;;;;5011424;28;20200;-69
2021/09/22 05:41:45;;;;;;;5.40;1.90;;;12.10;99.90;;;;;;5011168;28;20570;-69
2021/09/22 05:44:10;;;;;;;4.10;2.77;;;12.10;99.90;;;;;;5011050;28;20172;-67
2021/09/22 05:46:36;;;;;;;2.40;2.00;;;12.10;99.90;;;;;;5011255;28;20214;-69
2021/09/22 05:49:03;;;;;;;4.50;2.10;;;12.10;99.90;;;;;;5011287;28;20218;-69
2021/09/22 05:51:29;;;;;;;3.67;2.20;;;12.10;99.90;;;;;;5011383;28;20226;-68
2021/09/22 05:53:54;;;;;;;2.20;1.87;;;12.20;99.90;;;;;;5011059;28;20811;-68
2021/09/22 05:56:20;;;;;;;2.20;1.60;;;12.20;99.90;;;;;;5011022;28;20197;-68
2021/09/22 05:58:45;;;;;;;4.07;2.20;;;12.20;99.90;;;;;;5011050;28;20169;-68
2021/09/22 06:01:11;;;;;;;4.80;2.60;;;12.20;99.90;;;;;;5010990;28;20654;-68
2021/09/22 06:03:36;;;;;;;7.70;2.40;;;12.20;99.90;;;;;;5011228;28;20222;-68
2021/09/22 06:06:02;;;;;;;2.70;1.77;;;12.30;99.90;;;;;;5014974;28;20195;-70
2021/09/22 06:08:27;;;;;;;5.27;2.47;;;12.30;99.90;;;;;;5014916;28;20184;-68
2021/09/22 06:10:53;;;;;;;4.93;2.93;;;12.40;99.90;;;;;;5014759;28;20172;-68
2021/09/22 06:13:18;;;;;;;3.57;2.10;;;12.40;99.90;;;;;;5014611;28;20181;-68
2021/09/22 06:15:44;;;;;;;1.73;1.53;;;12.40;99.90;;;;;;5015169;28;20188;-69
2021/09/22 06:18:09;;;;;;;6.60;2.90;;;12.40;99.90;;;;;;4996733;28;20210;-68
2021/09/22 06:20:35;;;;;;;3.67;2.60;;;12.40;99.90;;;;;;5014572;28;20172;-68
2021/09/22 06:23:01;;;;;;;3.87;2.30;;;12.30;99.90;;;;;;5014295;28;20196;-69
2021/09/22 06:25:26;;;;;;;2.17;2.00;;;12.50;99.90;;;;;;5014293;28;20192;-69
2021/09/22 06:27:52;;;;;;;4.00;2.27;;;12.50;99.90;;;;;;5014402;28;20176;-68
2021/09/22 06:30:17;;;;;;;2.10;1.90;;;12.60;99.90;;;;;;5014393;28;20203;-68
2021/09/22 06:32:43;;;;;;;4.60;1.97;;;12.50;99.90;;;;;;5014263;28;20175;-69
2021/09/22 06:35:10;;;;;;;2.17;1.97;;;12.50;99.90;;;;;;5014188;28;20196;-68
2021/09/22 06:37:37;;;;;;;5.17;3.17;;;12.50;99.90;;;;;;5014161;28;20566;-69
2021/09/22 06:40:05;;;;;;;2.60;2.00;;;12.40;99.90;;;;;;5014254;28;20983;-69
2021/09/22 06:42:30;;;;;;;4.10;1.83;;;12.50;99.90;;;;;;4996371;28;20490;-68
2021/09/22 06:44:56;;;;;;;3.00;1.60;;;12.60;99.90;;;;;;5014025;28;20848;-68
2021/09/22 06:47:21;;;;;;;2.60;2.20;;;12.70;99.90;;;;;;5013900;28;20180;-69
2021/09/22 06:49:47;;;;;;;11.10;2.07;;;12.60;99.90;;;;;;5013997;28;20173;-70
2021/09/22 06:52:13;;;;;;;2.00;1.80;;;12.60;99.90;;;;;;5013947;28;20176;-69
2021/09/22 06:54:38;;;;;;;5.60;2.13;;;12.70;99.90;;;;;;5013713;28;20677;-69
2021/09/22 06:57:04;;;;;;;2.20;1.83;;;12.70;99.90;;;;;;4995949;28;20214;-69
2021/09/22 06:59:29;;;;;;;4.73;2.13;;;12.80;99.90;;;;;;5013695;28;20255;-69
2021/09/22 07:01:55;;;;;;;3.30;1.73;;;12.80;99.90;;;;;;5013736;28;20173;-68
2021/09/22 07:04:20;;;;;;;4.30;2.73;;;12.90;99.90;;;;;;5013684;28;20667;-68
2021/09/22 07:06:46;;;;;;;6.70;2.73;;;13.00;99.90;;;;;;5013623;28;20172;-69
2021/09/22 07:09:11;;;;;;;9.23;3.37;;;13.00;99.90;;;;;;5013590;28;20183;-70
2021/09/22 07:11:37;;;;;;;4.70;2.47;;;13.10;99.90;;;;;;5013397;28;20220;-69
2021/09/22 07:14:03;;;;;;;4.70;2.10;;;13.10;99.90;;;;;;5013350;28;20226;-69
2021/09/22 07:16:29;;;;;;;3.13;2.17;;;13.10;99.90;;;;;;5013057;28;20180;-69
2021/09/22 07:18:56;;;;;;;4.37;1.87;;;13.10;99.90;;;;;;5013527;28;20441;-69
2021/09/22 07:21:22;;;;;;;3.23;2.50;;;13.20;99.90;;;;;;5013423;28;20611;-69
2021/09/22 07:23:47;;;;;;;2.03;1.57;;;13.30;99.90;;;;;;4995944;28;20455;-69
2021/09/22 07:26:13;;;;;;;5.80;2.37;;;13.30;99.90;;;;;;5013270;28;20192;-69
2021/09/22 07:28:38;;;;;;;3.97;2.00;;;13.30;99.90;;;;;;5013423;28;20169;-69
2021/09/22 07:31:04;;;;;;;4.27;1.67;;;13.30;99.90;;;;;;5013173;28;20183;-70
2021/09/22 07:33:30;;;;;;;4.13;1.93;;;13.30;99.90;;;;;;5013268;28;20188;-69
2021/09/22 07:35:56;;;;;;;4.10;2.37;;;13.50;99.90;;;;;;5013071;28;20185;-69
2021/09/22 07:38:21;;;;;;;4.47;1.67;;;13.50;99.90;;;;;;5013004;28;20326;-69
2021/09/22 07:40:47;;;;;;;5.83;2.10;;;13.60;99.90;;;;;;5012978;28;20554;-69
2021/09/22 07:43:12;;;;;;;2.93;1.93;;;13.70;99.90;;;;;;5012937;28;20233;-70
2021/09/22 07:45:38;;;;;;;4.70;1.90;;;13.60;99.90;;;;;;5012881;28;20230;-69
2021/09/22 07:48:04;;;;;;;2.10;1.90;;;13.70;99.90;;;;;;5012951;28;20172;-69
2021/09/22 07:50:30;;;;;;;7.30;2.10;;;13.60;99.90;;;;;;5012865;28;20616;-69
2021/09/22 07:52:55;;;;;;;2.30;2.10;;;13.60;99.90;;;;;;5013000;28;20490;-69
2021/09/22 07:55:21;;;;;;;5.10;2.10;;;13.60;99.90;;;;;;5012779;28;20570;-71
2021/09/22 07:57:48;;;;;;;7.50;2.73;;;13.60;99.90;;;;;;5012791;28;20200;-69
2021/09/22 08:00:14;;;;;;;6.70;1.70;;;13.60;99.90;;;;;;5012867;28;20158;-70
2021/09/22 08:02:40;;;;;;;4.50;1.63;;;13.60;99.90;;;;;;5012685;28;20414;-70
2021/09/22 08:05:07;;;;;;;3.70;2.60;;;13.70;99.90;;;;;;5012687;28;20514;-69
2021/09/22 08:07:32;;;;;;;2.00;1.80;;;13.70;99.90;;;;;;5012516;28;20177;-69
2021/09/22 08:09:58;;;;;;;5.03;2.30;;;13.70;99.90;;;;;;5012527;28;20787;-69
2021/09/22 08:12:23;;;;;;;4.20;1.97;;;13.80;99.90;;;;;;5012612;28;20214;-69
2021/09/22 08:14:49;;;;;;;3.53;1.97;;;13.70;99.90;;;;;;5012358;28;20192;-70
2021/09/22 08:17:17;;;;;;;2.10;1.70;;;13.80;99.90;;;;;;5012330;28;20196;-69
2021/09/22 08:19:43;;;;;;;5.33;1.97;;;13.60;99.90;;;;;;5012524;28;20165;-69
2021/09/22 08:22:08;;;;;;;4.40;1.60;;;13.70;99.90;;;;;;5012227;28;20407;-69
2021/09/22 08:24:34;;;;;;;3.53;1.67;;;13.60;99.90;;;;;;5012038;28;20560;-70
2021/09/22 08:27:00;;;;;;;4.00;1.90;;;13.60;99.90;;;;;;5011782;28;20184;-70
2021/09/22 08:29:26;;;;;;;2.70;2.00;;;13.80;99.90;;;;;;5012228;28;20176;-69
2021/09/22 08:31:51;;;;;;;6.50;1.87;;;13.90;99.90;;;;;;5012183;28;20208;-70
2021/09/22 08:34:20;;;;;;;7.53;1.57;;;13.90;99.90;;;;;;5012008;28;20539;-70
2021/09/22 08:36:45;;;;;;;4.63;2.37;;;13.80;99.90;;;;;;5012491;28;20210;-70
2021/09/22 08:39:12;;;;;;;2.73;2.10;;;13.70;99.90;;;;;;5012195;28;20419;-70
2021/09/22 08:41:38;;;;;;;1.70;1.60;;;13.60;99.90;;;;;;5012152;28;20257;-69
2021/09/22 08:44:04;;;;;;;2.73;1.97;;;13.70;99.90;;;;;;5011888;28;20982;-70
2021/09/22 08:46:34;;;;;;;1.87;1.50;;;13.70;99.90;;;;;;5012211;28;20263;-70
2021/09/22 08:49:01;;;;;;;5.77;2.00;;;13.80;99.90;;;;;;5011992;28;20403;-70
2021/09/22 08:51:27;;;;;;;3.27;2.17;;;14.00;99.90;;;;;;5011816;28;20438;-69
2021/09/22 08:53:53;;;;;;;1.43;1.33;;;14.00;99.90;;;;;;5011608;28;20411;-70
2021/09/22 08:56:18;;;;;;;3.70;2.13;;;14.30;99.90;;;;;;5011905;28;20428;-69
2021/09/22 08:58:44;;;;;;;4.63;2.13;;;14.40;99.90;;;;;;5012274;28;20596;-69
2021/09/22 09:01:15;;;;;;;7.97;1.77;;;14.50;99.90;;;;;;5012147;28;20164;-69
2021/09/22 09:03:42;;;;;;;4.00;1.60;;;14.80;99.90;;;;;;5011776;28;20166;-69
2021/09/22 09:06:25;;;;;;;5.10;2.00;;;14.90;99.90;;;;;;5011443;28;20518;-69
2021/09/22 09:08:57;;;;;;;4.43;1.70;;;14.90;99.90;;;;;;5011658;28;20403;-69
2021/09/22 09:11:27;;;;;;;2.83;1.53;;;14.90;99.90;;;;;;5008751;28;20429;-70
2021/09/22 09:13:55;;;;;;;6.57;1.67;;;14.80;99.90;;;;;;5012001;28;20411;-69
2021/09/22 09:16:24;;;;;;;3.80;1.60;;;14.80;99.90;;;;;;5011644;28;20428;-70
2021/09/22 09:18:53;;;;;;;3.97;1.90;;;14.80;99.90;;;;;;5011525;28;20425;-71
2021/09/22 09:21:25;;;;;;;2.30;1.73;;;15.20;99.90;;;;;;5012381;28;20496;-70
2021/09/22 09:23:54;;;;;;;2.63;2.20;;;15.30;99.90;;;;;;4995293;28;20520;-71
2021/09/22 09:26:28;;;;;;;2.87;2.00;;;15.40;99.90;;;;;;5011719;28;20432;-70
2021/09/22 09:28:55;;;;;;;6.57;1.57;;;15.20;99.90;;;;;;5012063;28;20829;-70
2021/09/22 09:31:22;;;;;;;7.60;2.27;;;15.40;99.90;;;;;;5011800;28;20412;-70
2021/09/22 09:33:53;;;;;;;5.27;2.00;;;15.50;99.90;;;;;;5011967;28;20494;-70
2021/09/22 09:36:42;;;;;;;6.93;1.40;;;15.50;99.90;;;;;;5011809;28;20950;-70
2021/09/22 09:39:12;;;;;;;2.20;1.23;;;15.80;99.90;;;;;;5014475;28;20445;-70
2021/09/22 09:41:49;;;;;;;2.50;1.43;;;15.70;99.90;;;;;;5015645;28;20478;-72
2021/09/22 09:44:17;;;;;;;2.60;2.40;;;15.90;99.90;;;;;;4997869;28;20421;-69
2021/09/22 09:46:44;;;;;;;2.20;1.43;;;16.20;99.90;;;;;;5015871;28;20406;-68
2021/09/22 09:49:21;;;;;;;3.00;1.63;;;16.10;99.90;;;;;;5015491;28;20744;-69
2021/09/22 09:51:49;;;;;;;3.83;2.20;;;16.00;99.90;;;;;;5015760;28;20400;-70
2021/09/22 09:54:22;;;;;;;3.10;1.70;;;15.90;99.90;;;;;;5015405;28;20423;-70
2021/09/22 09:56:49;;;;;;;4.53;1.47;;;15.90;99.90;;;;;;5015606;28;21034;-69
2021/09/22 09:59:17;;;;;;;5.40;1.93;;;15.60;99.90;;;;;;5015545;28;20415;-70
2021/09/22 10:01:44;;;;;;;3.03;1.77;;;15.80;99.90;;;;;;5015628;28;20912;-70
2021/09/22 10:04:12;;;;;;;3.37;1.60;;;15.90;99.90;;;;;;5015818;28;20420;-69
2021/09/22 10:06:40;;;;;;;4.30;1.90;;;15.90;99.90;;;;;;5015588;28;20447;-69
2021/09/22 10:09:07;;;;;;;4.40;1.40;;;15.90;99.90;;;;;;5015597;28;20426;-69
2021/09/22 10:11:35;;;;;;;6.60;1.70;;;15.80;99.90;;;;;;4997975;28;20448;-70
2021/09/22 10:14:03;;;;;;;2.27;1.50;;;15.60;99.90;;;;;;5015264;28;20774;-69
2021/09/22 10:16:29;;;;;;;8.03;2.47;;;16.00;99.90;;;;;;5015203;28;20405;-68
2021/09/22 10:18:57;;;;;;;5.27;2.20;;;15.90;99.90;;;;;;5015056;28;20428;-69
2021/09/22 10:21:23;;;;;;;6.13;1.90;;;16.10;99.90;;;;;;5014960;28;20413;-68
2021/09/22 10:23:53;;;;;;;1.20;1.10;;;16.10;99.90;;;;;;5015233;28;20406;-68
2021/09/22 10:26:26;;;;;;;2.20;1.33;;;15.80;99.90;;;;;;5015271;28;20837;-69
2021/09/22 10:29:00;;;;;;;3.70;1.60;;;16.10;99.90;;;;;;5015668;28;20449;-70
2021/09/22 10:31:29;;;;;;;2.20;1.60;;;16.30;99.90;;;;;;5014993;28;20406;-69
2021/09/22 10:33:57;;;;;;;4.77;1.47;;;15.90;99.90;;;;;;5014842;28;20406;-69
2021/09/22 10:36:42;;;;;;;2.03;1.70;;;16.40;99.90;;;;;;5015113;28;20434;-69
2021/09/22 10:39:24;;;;;;;1.93;1.20;;;16.80;99.90;;;;;;5014748;28;20422;-69
2021/09/22 10:41:49;;;;;;;1.70;1.40;;;17.30;99.90;;;;;;5014827;28;20406;-70
2021/09/22 10:44:36;;;;;;;3.17;1.00;;;17.10;99.90;;;;;;5014453;28;20404;-70
2021/09/22 10:47:21;;;;;;;3.03;1.13;;;17.50;99.90;;;;;;5014836;28;20267;-70
2021/09/22 10:49:47;;;;;;;1.97;1.30;;;17.70;99.90;;;;;;5013785;28;20421;-70
2021/09/22 10:52:35;;;;;;;4.13;1.30;;;17.40;99.90;;;;;;5014475;28;20412;-69
2021/09/22 10:55:17;;;;;;;2.77;1.80;;;17.30;99.90;;;;;;5014427;28;20212;-69
2021/09/22 10:57:45;;;;;;;2.23;1.17;;;17.10;99.90;;;;;;5014701;28;20459;-69
2021/09/22 11:00:16;;;;;;;2.33;1.70;;;16.70;99.90;;;;;;5014507;28;20414;-69
2021/09/22 11:02:48;;;;;;;1.67;1.20;;;17.00;99.90;;;;;;5014354;28;20964;-69
2021/09/22 11:05:26;;;;;;;1.43;1.20;;;17.00;99.90;;;;;;4996407;28;21145;-69
2021/09/22 11:08:08;;;;;;;2.57;1.30;;;17.10;99.90;;;;;;4996744;28;20427;-69
2021/09/22 11:10:52;;;;;;;2.27;1.50;;;17.30;99.90;;;;;;5014253;28;20462;-69
2021/09/22 11:13:26;;;;;;;5.03;1.23;;;16.70;99.90;;;;;;5014085;28;20459;-69
2021/09/22 11:15:57;;;;;;;2.40;1.57;;;17.30;99.90;;;;;;5013731;28;20524;-70
2021/09/22 11:18:23;;;;;;;3.13;1.80;;;17.50;99.90;;;;;;5013912;28;20474;-69
2021/09/22 11:20:52;;;;;;;0.90;0.90;;;17.50;99.90;;;;;;4996413;28;20450;-68
2021/09/22 11:23:21;;;;;;;3.70;1.10;;;17.90;99.90;;;;;;5013908;28;20406;-69
2021/09/22 11:25:46;;;;;;;4.80;1.40;;;18.00;99.90;;;;;;5013719;28;20478;-69
2021/09/22 11:28:12;;;;;;;4.13;1.40;;;17.70;99.90;;;;;;5013776;28;20407;-69
2021/09/22 11:30:39;;;;;;;2.77;1.20;;;17.80;99.90;;;;;;5013843;28;20671;-70
2021/09/22 11:33:05;;;;;;;3.70;1.80;;;17.70;99.90;;;;;;4996358;28;20695;-70
2021/09/22 11:35:31;;;;;;;2.60;1.33;;;17.70;99.90;;;;;;5013717;28;20516;-70
2021/09/22 11:37:58;;;;;;;1.43;1.20;;;17.80;99.90;;;;;;5013872;28;20216;-69
2021/09/22 11:40:26;;;;;;;3.23;1.20;;;18.00;99.90;;;;;;5012584;28;20327;-70
2021/09/22 11:43:19;;;;;;;1.90;1.20;;;17.40;99.90;;;;;;5012452;28;20480;-69
2021/09/22 11:45:53;;;;;;;2.73;1.00;;;17.00;99.90;;;;;;5011803;28;20765;-68
2021/09/22 11:48:27;;;;;;;2.03;1.17;;;17.40;99.90;;;;;;5013437;28;20453;-69
2021/09/22 11:50:52;;;;;;;3.10;0.90;;;17.60;99.90;;;;;;5013738;28;20408;-71
2021/09/22 11:53:21;;;;;;;2.07;1.47;;;18.00;99.90;;;;;;5013467;28;20407;-69
2021/09/22 11:55:51;;;;;;;6.97;1.30;;;17.40;99.90;;;;;;5013326;28;20195;-69
2021/09/22 11:58:19;;;;;;;4.83;1.63;;;17.00;99.90;;;;;;5013241;28;20510;-70
2021/09/22 12:00:49;;;;;;;2.03;1.70;;;17.40;99.90;;;;;;5013405;28;20403;-70
2021/09/22 12:03:15;;;;;;;3.03;1.17;;;17.50;99.90;;;;;;4995474;28;20406;-70
2021/09/22 12:05:42;;;;;;;1.67;1.47;;;17.90;99.90;;;;;;5012980;28;20469;-70
2021/09/22 12:08:08;;;;;;;2.43;1.23;;;18.20;99.90;;;;;;5013044;28;20408;-69
2021/09/22 12:10:40;;;;;;;2.27;1.40;;;18.30;99.90;;;;;;5013086;28;20525;-69
2021/09/22 12:13:05;;;;;;;4.30;1.30;;;18.10;99.90;;;;;;5012980;28;20416;-69
2021/09/22 12:15:33;;;;;;;1.53;1.30;;;18.40;99.90;;;;;;5012841;28;20787;-69
2021/09/22 12:17:59;;;;;;;1.80;1.00;;;18.00;99.90;;;;;;5013023;28;20313;-71
2021/09/22 12:20:25;;;;;;;6.43;1.33;;;18.20;99.90;;;;;;4995642;28;20442;-69
2021/09/22 12:23:05;;;;;;;1.57;1.13;;;18.70;99.90;;;;;;5012801;28;20162;-70
2021/09/22 12:25:33;;;;;;;3.10;1.20;;;18.70;99.90;;;;;;5012614;28;20436;-70
2021/09/22 12:28:00;;;;;;;3.37;1.20;;;19.10;99.90;;;;;;5012737;28;20425;-71
2021/09/22 12:30:33;;;;;;;2.60;1.30;;;19.20;99.90;;;;;;5012558;28;20752;-69
2021/09/22 12:33:02;;;;;;;4.43;1.33;;;19.00;99.90;;;;;;5012597;28;20414;-69
2021/09/22 12:35:32;;;;;;;1.07;0.90;;;18.60;99.90;;;;;;5012451;28;20433;-69
2021/09/22 12:38:00;;;;;;;2.50;1.30;;;19.10;99.90;;;;;;5012504;28;20987;-69
2021/09/22 12:40:48;;;;;;;5.40;1.13;;;19.00;99.90;;;;;;5012460;28;20410;-69
2021/09/22 12:43:25;;;;;;;2.53;1.17;;;18.80;99.90;;;;;;5012178;28;20446;-70
2021/09/22 12:46:05;;;;;;;5.07;1.30;;;19.00;99.90;;;;;;5012289;28;20472;-69